Airfield :
LOGIN :

Register | Disclaimer

   EN    FR    IT 

 










Legend :    VFR   Marginal VFR   IFR   Intensive IFR   Very Intensive IFR
Visi :
Ceiling :
>= 8 km
>= 3000ft
5 to 8 km
1000 to 3000 ft
1500m to 5 km
500 to 1000 ft
800 to 1500m
200 to 500 ft
< 800m
< 200 ft
Symbols :   Thunderstorms  Fog  Heavy snow  Heavy precipitations  Wind > 20 kt
SIGMETs :     Misc.  Thunderstorms  Icing  Turbulence  Mountain Waves  Volcanic Ashes






- Airport Elevation : 614 ft
- IATA code : CRL


EBCI - Charleroi

CURRENT METAR :
  • 100450Z 20015G25KT 170V230 9999 SCT015 BKN043 14/12 Q1002 NOSIG

EXPIRED METARs :
  • 100420Z 20012KT 9999 FEW012 13/11 Q1001 NOSIG
  • 100350Z 19010KT 9999 -RA SCT022 BKN035 14/11 Q1000 NOSIG
  • 100320Z 22020G31KT 9999 -RA SCT025 BKN035 15/10 Q1001 TEMPO 22018G30KT 4000 RA BKN012
  • 100250Z 21019G30KT 170V230 9999 SCT025 BKN035 17/10 Q1000 NOSIG
  • 100220Z 19018G34KT CAVOK 18/09 Q0999 NOSIG

TAF TAF EBCI
Valid from the 10 at 00:00 until the 11 at 06:00 UTC


092320Z 1000/1106 14006KT CAVOK
BECMG 1004/1006 20016G27KT
BECMG 1007/1009 22013KT
PROB40
TEMPO 1004/1008 4000 SHRA BKN012TCU
PROB30
TEMPO 1019/1023 14006KT



MET'MAP, your aeronautical weather chart ! - Copyright ORBIFLY December 2007 - Disclaimer

ORBIFLY MET'MAP TEAM :

Programming & Development : Alexandra Zaïnal
Concept & original design : Baudouin d'Aumeries
Assistance for programming : Marc-Olivier Méhu
Technical & hardware support : Manuel Goepfert

Contact : metmap@orbifly.com




SOURCES & CREDITS :

   NOAA